Time;durP1;ratioP1;P1;durP2;ratioP2;P2;SDS_P1;SDS_P2;PMS_P1;PMS_P2;Temp;Humidity;BMP_temperature;BMP_pressure;BME280_temperature;BME280_humidity;BME280_pressure;Samples;Min_cycle;Max_cycle;Signal;HPM_P1;HPM_P2
2023/01/02 00:02:26;;;;;;;29.67;27.80;;;;;;;9.35;100.00;101167.47;5033068;28;20440;-45
2023/01/02 00:04:55;;;;;;;29.50;27.63;;;;;;;9.36;100.00;101155.81;5032568;28;20976;-46
2023/01/02 00:07:23;;;;;;;30.33;27.83;;;;;;;9.36;100.00;101155.00;5033182;28;20428;-45
2023/01/02 00:09:50;;;;;;;29.90;28.00;;;;;;;9.36;100.00;101166.47;5032468;28;20985;-44
2023/01/02 00:12:18;;;;;;;29.80;27.70;;;;;;;9.35;100.00;101148.00;5032770;28;20440;-47
2023/01/02 00:14:46;;;;;;;30.00;28.13;;;;;;;9.33;100.00;101140.22;5031877;28;20526;-44
2023/01/02 00:17:16;;;;;;;30.90;28.50;;;;;;;9.34;100.00;101130.41;5031648;28;20468;-44
2023/01/02 00:19:43;;;;;;;30.40;28.40;;;;;;;9.33;100.00;101136.72;5031254;28;20464;-45
2023/01/02 00:22:13;;;;;;;29.00;26.97;;;;;;;9.33;100.00;101126.91;5031876;28;20428;-45
2023/01/02 00:24:40;;;;;;;31.00;29.00;;;;;;;9.32;100.00;101119.91;5031570;28;20813;-48
2023/01/02 00:27:08;;;;;;;30.17;28.27;;;;;;;9.32;100.00;101109.25;5031772;28;20471;-46
2023/01/02 00:29:36;;;;;;;29.73;27.93;;;;;;;9.30;100.00;101111.28;5030962;28;20460;-47
2023/01/02 00:32:04;;;;;;;30.93;28.43;;;;;;;9.30;100.00;101105.97;5031511;28;20436;-47
2023/01/02 00:34:31;;;;;;;29.70;27.80;;;;;;;9.29;100.00;101103.47;5031339;28;20853;-46
2023/01/02 00:36:59;;;;;;;29.23;27.13;;;;;;;9.28;100.00;101105.31;5028580;28;20476;-47
2023/01/02 00:39:28;;;;;;;30.17;27.80;;;;;;;9.29;100.00;101104.31;5031036;28;20460;-45
2023/01/02 00:41:56;;;;;;;28.87;27.27;;;;;;;9.28;100.00;101097.34;5031417;28;20440;-44
2023/01/02 00:44:24;;;;;;;29.07;27.23;;;;;;;9.28;100.00;101100.00;5030327;28;20456;-46
2023/01/02 00:46:51;;;;;;;27.50;26.03;;;;;;;9.28;100.00;101100.00;5031125;28;20428;-44
2023/01/02 00:49:19;;;;;;;29.07;27.10;;;;;;;9.30;100.00;101097.16;5030883;28;20468;-45
2023/01/02 00:51:46;;;;;;;29.47;27.27;;;;;;;9.29;100.00;101091.00;5031476;28;20451;-45
2023/01/02 00:54:14;;;;;;;30.50;28.10;;;;;;;9.30;100.00;101083.84;5030926;28;20467;-48
2023/01/02 00:56:43;;;;;;;31.20;28.93;;;;;;;9.30;100.00;101090.00;5031237;28;20526;-49
2023/01/02 00:59:11;;;;;;;29.30;27.60;;;;;;;9.30;100.00;101087.34;5030316;28;20543;-44
2023/01/02 01:01:38;;;;;;;30.03;27.93;;;;;;;9.31;100.00;101091.66;5031130;28;20432;-48
2023/01/02 01:04:06;;;;;;;30.00;28.00;;;;;;;9.32;100.00;101082.66;5030876;28;20448;-43
2023/01/02 01:06:34;;;;;;;30.83;28.67;;;;;;;9.33;100.00;101086.16;5031227;28;20447;-46
2023/01/02 01:09:02;;;;;;;30.47;28.30;;;;;;;9.32;100.00;101072.00;5030280;28;20460;-48
2023/01/02 01:11:29;;;;;;;30.13;28.13;;;;;;;9.34;100.00;101077.16;5031101;28;20423;-48
2023/01/02 01:13:58;;;;;;;31.33;28.63;;;;;;;9.32;100.00;101077.31;4994533;28;1045938;-45
2023/01/02 01:16:26;;;;;;;29.67;27.70;;;;;;;9.33;100.00;101083.47;5031661;28;20221;-46
2023/01/02 01:18:55;;;;;;;30.27;28.40;;;;;;;9.34;100.00;101082.50;5031247;28;21044;-47
2023/01/02 01:21:23;;;;;;;30.40;28.63;;;;;;;9.35;100.00;101087.63;5031414;28;20436;-49
2023/01/02 01:23:52;;;;;;;30.10;28.20;;;;;;;9.36;100.00;101091.09;5031480;28;20448;-47
2023/01/02 01:26:21;;;;;;;29.07;27.17;;;;;;;9.37;100.00;101087.44;5031250;28;20427;-47
2023/01/02 01:28:51;;;;;;;32.40;29.63;;;;;;;9.39;100.00;101090.75;5030722;28;20458;-45
2023/01/02 01:31:22;;;;;;;30.07;27.47;;;;;;;9.40;100.00;101095.06;5031946;28;20437;-44
2023/01/02 01:33:49;;;;;;;30.80;28.60;;;;;;;9.41;100.00;101091.38;5031414;28;20464;-45
2023/01/02 01:36:19;;;;;;;30.07;28.00;;;;;;;9.41;100.00;101078.91;5031048;28;20479;-45
2023/01/02 01:38:47;;;;;;;30.60;28.33;;;;;;;9.42;100.00;101072.59;5022461;28;20514;-44
2023/01/02 01:41:16;;;;;;;31.20;28.70;;;;;;;9.44;100.00;101061.75;5031153;28;20432;-46
2023/01/02 01:43:48;;;;;;;31.67;29.50;;;;;;;9.43;100.00;101065.44;5031089;28;20452;-46
2023/01/02 01:46:24;;;;;;;31.20;29.03;;;;;;;9.44;100.00;101059.91;5030892;28;20435;-44
2023/01/02 01:48:59;;;;;;;31.70;29.37;;;;;;;9.44;100.00;101049.25;5033372;22;20488;-46
2023/01/02 01:51:29;;;;;;;31.47;29.27;;;;;;;9.44;100.00;101043.09;5023396;28;20436;-53
2023/01/02 01:54:04;;;;;;;32.53;29.53;;;;;;;9.43;100.00;101046.81;5023729;28;20444;-45
2023/01/02 01:56:35;;;;;;;31.20;28.57;;;;;;;9.43;100.00;101047.63;5022486;28;20460;-50
2023/01/02 01:59:04;;;;;;;32.23;30.03;;;;;;;9.43;100.00;101036.16;5023165;28;20560;-50
2023/01/02 02:01:33;;;;;;;31.60;28.50;;;;;;;9.43;100.00;101049.47;5024029;28;20464;-48
2023/01/02 02:04:01;;;;;;;30.60;28.40;;;;;;;9.43;100.00;101030.84;5023421;28;20544;-49
2023/01/02 02:06:29;;;;;;;31.23;28.70;;;;;;;9.39;100.00;101019.72;5022870;28;20432;-48
2023/01/02 02:09:02;;;;;;;29.77;27.83;;;;;;;9.41;100.00;101015.03;5021372;28;20483;-46
2023/01/02 02:11:30;;;;;;;32.00;29.53;;;;;;;9.42;100.00;101013.19;5022846;28;20413;-45
2023/01/02 02:13:59;;;;;;;32.00;29.40;;;;;;;9.41;100.00;101008.88;5022694;28;20452;-45
2023/01/02 02:16:39;;;;;;;30.80;28.67;;;;;;;9.41;100.00;101006.22;5022071;28;20437;-46
2023/01/02 02:19:43;;;;;;;30.70;28.83;;;;;;;9.42;100.00;101007.88;5022070;28;20471;-53
2023/01/02 02:22:50;;;;;;;29.43;27.50;;;;;;;9.42;100.00;101011.38;5022831;28;20439;-44
2023/01/02 02:25:45;;;;;;;29.97;28.07;;;;;;;9.42;100.00;100999.88;5021456;28;20448;-48
2023/01/02 02:28:36;;;;;;;29.07;27.17;;;;;;;9.44;100.00;101003.19;5021464;28;20455;-48
2023/01/02 02:31:13;;;;;;;30.53;28.30;;;;;;;9.44;100.00;100987.22;5021626;28;20435;-47
2023/01/02 02:33:46;;;;;;;30.70;28.47;;;;;;;9.43;100.00;100994.41;5021899;28;20497;-50
2023/01/02 02:36:19;;;;;;;29.67;27.80;;;;;;;9.44;100.00;100992.53;5022652;28;20441;-47
2023/01/02 02:39:01;;;;;;;30.87;28.10;;;;;;;9.44;100.00;100977.41;5002513;28;20461;-45
2023/01/02 02:41:34;;;;;;;29.97;27.80;;;;;;;9.44;100.00;100977.41;5002677;28;20440;-44
2023/01/02 02:44:14;;;;;;;32.07;29.43;;;;;;;9.46;100.00;100985.22;5002410;28;20418;-46
2023/01/02 02:46:51;;;;;;;30.27;28.37;;;;;;;9.47;100.00;100986.03;5002491;28;20477;-48
2023/01/02 02:49:28;;;;;;;30.00;27.70;;;;;;;9.47;100.00;100970.06;5002542;28;20531;-45
2023/01/02 02:52:03;;;;;;;30.70;28.40;;;;;;;9.46;100.00;100969.25;5002593;28;20414;-50
2023/01/02 02:54:34;;;;;;;33.20;29.90;;;;;;;9.47;100.00;100968.22;5002402;28;20421;-49
2023/01/02 02:57:05;;;;;;;31.47;29.10;;;;;;;9.47;100.00;100968.22;5002374;28;20867;-48
2023/01/02 02:59:36;;;;;;;32.57;30.33;;;;;;;9.47;100.00;100960.22;5002115;28;20990;-47
2023/01/02 03:02:05;;;;;;;31.20;29.10;;;;;;;9.47;100.00;100948.78;5002738;28;20445;-48
2023/01/02 03:04:32;;;;;;;31.13;29.00;;;;;;;9.45;100.00;100943.63;5002613;28;20445;-46
2023/01/02 03:07:17;;;;;;;32.00;29.60;;;;;;;9.44;100.00;100936.63;5003907;28;20434;-48
2023/01/02 03:09:51;;;;;;;33.40;30.80;;;;;;;9.45;100.00;100938.31;5005581;28;20871;-49
2023/01/02 03:12:29;;;;;;;32.60;30.20;;;;;;;9.44;100.00;100934.81;5006631;28;20451;-49
2023/01/02 03:15:07;;;;;;;33.03;30.73;;;;;;;9.46;100.00;100931.97;5005474;28;20433;-50
2023/01/02 03:17:45;;;;;;;33.07;30.67;;;;;;;9.45;100.00;100925.00;5005447;28;20477;-48
2023/01/02 03:20:19;;;;;;;32.80;30.50;;;;;;;9.47;100.00;100914.16;5004959;28;20457;-47
2023/01/02 03:22:52;;;;;;;31.90;29.83;;;;;;;9.47;100.00;100906.19;5005414;28;20426;-50
2023/01/02 03:25:21;;;;;;;33.80;30.80;;;;;;;9.43;100.00;100903.91;5005173;28;20461;-51
2023/01/02 03:27:51;;;;;;;32.47;30.20;;;;;;;9.39;100.00;100893.78;5005862;28;20512;-44
2023/01/02 03:30:21;;;;;;;33.10;30.60;;;;;;;9.34;100.00;100893.53;5004575;28;20532;-48
2023/01/02 03:32:55;;;;;;;35.80;32.17;;;;;;;9.30;100.00;100889.56;5005201;28;20422;-45
2023/01/02 03:35:26;;;;;;;35.13;32.10;;;;;;;9.27;100.00;100885.44;5005945;28;20442;-47
2023/01/02 03:37:57;;;;;;;34.77;32.07;;;;;;;9.25;100.00;100874.16;5017101;28;20966;-46
2023/01/02 03:40:30;;;;;;;33.10;30.77;;;;;;;9.22;100.00;100874.53;5024864;28;20441;-48
2023/01/02 03:43:01;;;;;;;34.10;31.60;;;;;;;9.22;100.00;100873.72;5024909;28;20426;-47
2023/01/02 03:45:32;;;;;;;33.37;30.83;;;;;;;9.18;100.00;100865.25;5025361;28;20428;-49
2023/01/02 03:48:08;;;;;;;34.97;31.77;;;;;;;9.18;100.00;100865.25;5023935;28;20467;-48
2023/01/02 03:50:42;;;;;;;32.40;30.30;;;;;;;9.17;100.00;100868.94;5024765;28;20429;-46
2023/01/02 03:53:09;;;;;;;32.10;29.90;;;;;;;9.18;100.00;100859.13;5024794;28;20417;-47
2023/01/02 03:55:41;;;;;;;36.43;33.53;;;;;;;9.17;100.00;100860.16;5025346;28;20449;-51
2023/01/02 03:58:16;;;;;;;34.30;31.90;;;;;;;9.19;100.00;100850.13;5024094;28;20881;-47
2023/01/02 04:00:55;;;;;;;33.00;30.80;;;;;;;9.19;100.00;100845.63;5024209;28;20421;-46
2023/01/02 04:03:28;;;;;;;42.00;38.30;;;;;;;9.18;100.00;100845.81;5024082;28;20445;-50
2023/01/02 04:06:02;;;;;;;45.27;40.97;;;;;;;9.20;100.00;100839.28;5023882;28;20421;-48
2023/01/02 04:08:34;;;;;;;38.03;34.80;;;;;;;9.21;100.00;100832.13;5024106;28;20468;-47
2023/01/02 04:11:04;;;;;;;35.10;32.27;;;;;;;9.21;100.00;100827.66;5024659;28;20810;-47
2023/01/02 04:13:38;;;;;;;35.90;33.00;;;;;;;9.22;100.00;100823.16;5025182;28;20433;-48
2023/01/02 04:16:10;;;;;;;33.10;30.80;;;;;;;9.21;100.00;100814.34;5024853;28;20429;-49
2023/01/02 04:18:44;;;;;;;32.93;30.83;;;;;;;9.21;100.00;100808.19;5023175;28;20465;-49
2023/01/02 04:21:19;;;;;;;32.27;30.10;;;;;;;9.18;100.00;100803.25;5025463;28;20516;-48
2023/01/02 04:23:50;;;;;;;32.27;30.03;;;;;;;9.18;100.00;100797.91;5025113;28;20432;-52
2023/01/02 04:26:24;;;;;;;33.03;30.53;;;;;;;9.16;100.00;100792.78;5025046;28;20432;-48
2023/01/02 04:28:52;;;;;;;32.97;30.53;;;;;;;9.16;100.00;100805.28;5023797;28;20490;-51
2023/01/02 04:31:25;;;;;;;34.27;31.43;;;;;;;9.14;100.00;100802.78;5023928;28;20421;-48
2023/01/02 04:33:58;;;;;;;33.07;30.83;;;;;;;9.19;100.00;100805.72;5023680;28;20501;-51
2023/01/02 04:36:27;;;;;;;35.30;32.43;;;;;;;9.21;100.00;100811.69;5023766;28;20421;-47
2023/01/02 04:38:54;;;;;;;34.90;32.70;;;;;;;9.23;100.00;100793.69;5012751;28;20489;-46
2023/01/02 04:41:25;;;;;;;34.33;31.83;;;;;;;9.27;100.00;100800.28;5023571;28;20445;-50
2023/01/02 04:43:54;;;;;;;31.37;29.23;;;;;;;9.27;100.00;100796.81;5023121;28;20838;-45
2023/01/02 04:46:22;;;;;;;33.50;31.20;;;;;;;9.29;100.00;100800.91;5024489;28;20701;-46
2023/01/02 04:48:50;;;;;;;32.70;30.27;;;;;;;9.27;100.00;100794.97;5023358;28;20468;-50
2023/01/02 04:51:20;;;;;;;34.83;32.13;;;;;;;9.28;100.00;100795.81;5024369;28;20491;-47
2023/01/02 04:53:48;;;;;;;33.87;31.33;;;;;;;9.28;100.00;100793.13;5022783;28;20452;-49
2023/01/02 04:56:16;;;;;;;39.10;35.03;;;;;;;9.27;100.00;100791.47;5023944;28;20425;-48
2023/01/02 04:58:44;;;;;;;37.17;34.27;;;;;;;9.25;100.00;100788.19;5022573;28;20479;-47
2023/01/02 05:01:14;;;;;;;38.87;35.30;;;;;;;9.25;100.00;100786.34;5023295;28;20448;-46
2023/01/02 05:03:44;;;;;;;35.63;33.00;;;;;;;9.27;100.00;100771.03;5023349;28;20515;-48
2023/01/02 05:06:13;;;;;;;33.80;31.47;;;;;;;9.30;100.00;100767.16;5022234;28;20435;-44
2023/01/02 05:08:42;;;;;;;36.53;33.30;;;;;;;9.27;100.00;100763.03;5022063;28;20467;-45
2023/01/02 05:11:13;;;;;;;39.97;35.67;;;;;;;9.27;100.00;100755.06;5023325;28;20776;-48
2023/01/02 05:13:40;;;;;;;34.07;31.40;;;;;;;9.28;100.00;100764.69;5022620;28;20432;-46
2023/01/02 05:16:08;;;;;;;37.07;33.93;;;;;;;9.30;100.00;100761.84;5023379;28;20428;-48
2023/01/02 05:18:36;;;;;;;36.67;33.70;;;;;;;9.36;100.00;100766.41;5022322;28;20515;-46
2023/01/02 05:21:06;;;;;;;38.00;34.70;;;;;;;9.38;100.00;100754.56;5022782;28;20440;-50
2023/01/02 05:23:48;;;;;;;37.13;34.43;;;;;;;9.42;100.00;100752.34;5023245;28;20440;-47
2023/01/02 05:26:18;;;;;;;38.80;35.60;;;;;;;9.47;100.00;100749.13;5023373;28;20425;-47
2023/01/02 05:28:46;;;;;;;35.53;32.93;;;;;;;9.50;100.00;100749.56;5022694;28;20532;-46
2023/01/02 05:31:13;;;;;;;36.53;33.90;;;;;;;9.54;100.00;100747.34;5023071;28;20448;-45
2023/01/02 05:33:41;;;;;;;38.07;34.70;;;;;;;9.58;100.00;100745.97;5023720;28;20437;-49
2023/01/02 05:36:09;;;;;;;38.43;35.60;;;;;;;9.60;100.00;100742.09;5023019;28;20433;-50
2023/01/02 05:38:38;;;;;;;38.70;35.80;;;;;;;9.64;100.00;100746.03;5019101;28;20465;-48
2023/01/02 05:41:07;;;;;;;38.93;35.77;;;;;;;9.68;100.00;100749.13;5023082;28;20515;-48
2023/01/02 05:43:37;;;;;;;39.60;36.73;;;;;;;9.72;100.00;100742.41;5022714;28;20443;-48
2023/01/02 05:46:10;;;;;;;40.77;37.63;;;;;;;9.76;100.00;100743.69;5023294;28;20460;-50
2023/01/02 05:48:38;;;;;;;40.17;37.07;;;;;;;9.78;100.00;100744.31;5022491;28;20467;-47
2023/01/02 05:51:07;;;;;;;40.93;37.93;;;;;;;9.80;100.00;100743.09;5022954;28;20468;-45
2023/01/02 05:53:35;;;;;;;40.53;37.37;;;;;;;9.85;100.00;100746.03;5023074;28;20843;-50
2023/01/02 05:56:04;;;;;;;42.27;38.87;;;;;;;9.89;100.00;100738.44;5023004;28;20540;-50
2023/01/02 05:58:33;;;;;;;45.27;40.97;;;;;;;9.91;100.00;100736.44;5022162;28;20473;-46
2023/01/02 06:01:06;;;;;;;42.37;38.87;;;;;;;9.93;100.00;100737.06;5023464;28;20492;-52
2023/01/02 06:03:34;;;;;;;44.70;40.67;;;;;;;9.97;100.00;100731.16;5022900;28;20421;-49
2023/01/02 06:06:03;;;;;;;45.73;41.60;;;;;;;9.98;100.00;100735.47;5023204;28;20439;-48
2023/01/02 06:08:31;;;;;;;47.97;43.37;;;;;;;10.02;100.00;100727.91;5022302;28;20461;-47
2023/01/02 06:10:59;;;;;;;45.03;41.27;;;;;;;10.04;100.00;100715.22;5022671;28;20460;-47
2023/01/02 06:13:28;;;;;;;44.13;40.47;;;;;;;10.07;100.00;100732.66;5023584;28;20440;-49
2023/01/02 06:15:57;;;;;;;45.80;42.10;;;;;;;10.08;100.00;100727.16;5023322;28;20417;-47
2023/01/02 06:18:27;;;;;;;47.37;43.43;;;;;;;10.10;100.00;100721.59;4999941;28;20470;-46
2023/01/02 06:20:58;;;;;;;46.60;42.70;;;;;;;10.14;100.00;100723.75;4986240;28;20435;-46
2023/01/02 06:23:25;;;;;;;47.07;42.80;;;;;;;10.15;100.00;100712.06;5022900;28;20441;-45
2023/01/02 06:25:53;;;;;;;48.00;43.60;;;;;;;10.16;100.00;100711.03;5022988;28;20536;-46
2023/01/02 06:28:21;;;;;;;49.60;44.87;;;;;;;10.19;100.00;100715.97;5021326;28;20457;-47
2023/01/02 06:30:49;;;;;;;51.87;46.23;;;;;;;10.20;100.00;100717.63;5023512;28;20433;-50
2023/01/02 06:33:16;;;;;;;51.73;46.70;;;;;;;10.21;100.00;100708.63;5023361;28;20432;-51
2023/01/02 06:35:45;;;;;;;51.13;46.30;;;;;;;10.23;100.00;100711.09;5023062;28;20505;-47
2023/01/02 06:38:13;;;;;;;53.37;48.23;;;;;;;10.25;100.00;100715.19;5022432;28;20448;-47
2023/01/02 06:40:40;;;;;;;52.77;47.87;;;;;;;10.25;100.00;100714.38;5022925;28;20472;-49
2023/01/02 06:43:08;;;;;;;51.40;46.43;;;;;;;10.26;100.00;100711.53;5026037;28;20497;-52
2023/01/02 06:45:36;;;;;;;52.37;47.47;;;;;;;10.25;100.00;100709.03;5027182;28;20433;-48
2023/01/02 06:48:04;;;;;;;54.27;48.73;;;;;;;10.26;100.00;100711.53;5019401;28;20476;-50
2023/01/02 06:50:31;;;;;;;55.43;49.87;;;;;;;10.26;100.00;100719.53;5006262;28;20434;-47
2023/01/02 06:53:03;;;;;;;54.30;49.17;;;;;;;10.29;100.00;100720.97;5006723;28;20438;-51
2023/01/02 06:55:31;;;;;;;54.30;49.20;;;;;;;10.28;100.00;100712.16;5007510;28;20444;-52
2023/01/02 06:57:58;;;;;;;55.30;49.90;;;;;;;10.29;100.00;100719.13;5005953;28;20464;-48
2023/01/02 07:00:35;;;;;;;55.23;50.03;;;;;;;10.30;100.00;100718.13;5006955;28;20564;-46
2023/01/02 07:03:02;;;;;;;56.87;51.10;;;;;;;10.31;100.00;100727.75;5006978;28;20465;-52
2023/01/02 07:05:30;;;;;;;54.77;49.53;;;;;;;10.35;100.00;100720.19;5005763;28;20441;-53
2023/01/02 07:07:58;;;;;;;52.63;47.43;;;;;;;10.34;100.00;100716.69;5005136;28;20461;-45
2023/01/02 07:10:27;;;;;;;55.03;49.70;;;;;;;10.35;100.00;100715.69;5005292;28;20955;-46
2023/01/02 07:12:54;;;;;;;53.80;48.80;;;;;;;10.36;100.00;100716.50;5005230;28;20430;-47
2023/01/02 07:15:22;;;;;;;52.87;47.77;;;;;;;10.38;100.00;100720.63;5005010;28;20438;-47
2023/01/02 07:17:50;;;;;;;53.57;48.43;;;;;;;10.38;100.00;100714.47;5003983;28;20453;-44
2023/01/02 07:20:17;;;;;;;52.60;47.47;;;;;;;10.41;100.00;100714.91;5004428;28;20479;-45
2023/01/02 07:22:49;;;;;;;51.60;46.60;;;;;;;10.43;100.00;100710.19;5005020;28;20468;-45
2023/01/02 07:25:17;;;;;;;55.40;49.73;;;;;;;10.44;100.00;100717.19;5005218;28;20441;-45
2023/01/02 07:27:46;;;;;;;53.03;48.37;;;;;;;10.45;100.00;100710.81;5004613;28;20953;-46
2023/01/02 07:30:14;;;;;;;52.30;47.00;;;;;;;10.47;100.00;100716.78;5004481;28;20470;-47
2023/01/02 07:32:42;;;;;;;52.00;47.27;;;;;;;10.48;100.00;100713.06;5004109;28;20430;-45
2023/01/02 07:35:10;;;;;;;53.00;48.13;;;;;;;10.50;100.00;100719.06;5004848;28;20501;-51
2023/01/02 07:37:38;;;;;;;51.60;47.10;;;;;;;10.50;100.00;100708.41;4981684;28;20485;-45
2023/01/02 07:40:07;;;;;;;54.77;49.63;;;;;;;10.53;100.00;100720.50;5023167;28;20469;-46
2023/01/02 07:42:35;;;;;;;51.50;46.97;;;;;;;10.55;100.00;100721.94;5023845;28;20433;-46
2023/01/02 07:45:04;;;;;;;54.10;49.10;;;;;;;10.57;100.00;100723.59;5024242;28;20417;-54
2023/01/02 07:47:32;;;;;;;54.60;49.73;;;;;;;10.58;100.00;100726.06;5025284;28;20528;-49
2023/01/02 07:50:00;;;;;;;52.57;47.97;;;;;;;10.60;100.00;100731.22;5002191;28;20566;-50
2023/01/02 07:52:27;;;;;;;53.03;48.27;;;;;;;10.62;100.00;100745.16;5025817;28;20443;-53
2023/01/02 07:54:55;;;;;;;52.70;47.93;;;;;;;10.63;100.00;100738.81;5025353;28;20484;-46
2023/01/02 07:57:22;;;;;;;51.40;46.60;;;;;;;10.65;100.00;100739.44;5025561;28;20611;-53
2023/01/02 07:59:50;;;;;;;51.70;47.20;;;;;;;10.65;100.00;100724.25;5025103;28;20480;-49
2023/01/02 08:02:19;;;;;;;50.53;46.20;;;;;;;10.67;100.00;100724.06;5025660;28;20429;-50
2023/01/02 08:04:47;;;;;;;50.70;46.00;;;;;;;10.67;100.00;100721.38;5025186;28;20760;-51
2023/01/02 08:07:15;;;;;;;50.27;45.57;;;;;;;10.69;100.00;100727.38;5026013;28;20425;-49
2023/01/02 08:09:42;;;;;;;51.03;46.30;;;;;;;10.67;100.00;100727.53;5024911;28;20524;-49
2023/01/02 08:12:10;;;;;;;48.50;44.40;;;;;;;10.71;100.00;100717.31;5025997;28;20436;-51
2023/01/02 08:14:38;;;;;;;50.40;45.97;;;;;;;10.72;100.00;100725.09;5024709;28;20437;-51
2023/01/02 08:17:05;;;;;;;50.40;45.50;;;;;;;10.73;100.00;100724.09;5025847;28;20433;-48
2023/01/02 08:19:34;;;;;;;48.57;44.50;;;;;;;10.76;100.00;100730.88;5024237;28;20461;-48
2023/01/02 08:22:02;;;;;;;47.33;43.30;;;;;;;10.76;100.00;100731.69;5025269;28;20429;-48
2023/01/02 08:24:30;;;;;;;50.40;45.73;;;;;;;10.77;100.00;100737.84;5025328;28;20799;-46
2023/01/02 08:26:58;;;;;;;47.43;43.53;;;;;;;10.79;100.00;100733.97;5024598;28;20483;-47
2023/01/02 08:29:25;;;;;;;48.00;43.53;;;;;;;10.81;100.00;100731.13;5024158;28;20460;-51
2023/01/02 08:31:53;;;;;;;42.67;39.50;;;;;;;10.82;100.00;100741.56;5025153;28;20437;-48
2023/01/02 08:34:21;;;;;;;44.03;40.70;;;;;;;10.83;100.00;100735.22;5025333;28;20441;-50
2023/01/02 08:36:51;;;;;;;46.23;41.97;;;;;;;10.82;100.00;100741.56;5025290;28;20433;-47
2023/01/02 08:39:18;;;;;;;42.70;39.10;;;;;;;10.82;100.00;100751.41;5023915;28;20467;-46
2023/01/02 08:41:46;;;;;;;42.50;39.20;;;;;;;10.83;100.00;100756.56;5023975;28;20484;-50
2023/01/02 08:44:14;;;;;;;41.97;38.60;;;;;;;10.85;100.00;100753.69;5024671;28;20429;-53
2023/01/02 08:46:42;;;;;;;40.27;37.17;;;;;;;10.85;100.00;100761.69;5024090;28;20438;-50
2023/01/02 08:49:11;;;;;;;41.17;37.83;;;;;;;10.86;100.00;100755.34;5023141;28;20479;-47
2023/01/02 08:51:38;;;;;;;41.60;38.20;;;;;;;10.86;100.00;100758.00;5023568;28;20429;-47
2023/01/02 08:54:08;;;;;;;40.00;36.90;;;;;;;10.87;100.00;100747.13;5023308;28;20444;-50
2023/01/02 08:56:36;;;;;;;38.43;35.50;;;;;;;10.89;100.00;100745.09;5023743;28;20443;-49
2023/01/02 08:59:06;;;;;;;39.17;36.03;;;;;;;10.90;100.00;100746.72;5023275;28;20909;-46
2023/01/02 09:01:34;;;;;;;41.30;37.60;;;;;;;10.92;100.00;100751.88;5023266;28;20475;-50
2023/01/02 09:04:03;;;;;;;37.30;34.40;;;;;;;10.93;100.00;100758.88;5024112;28;20838;-51
2023/01/02 09:06:40;;;;;;;36.43;33.77;;;;;;;10.93;100.00;100773.03;5015521;28;20450;-44
2023/01/02 09:09:10;;;;;;;37.70;35.00;;;;;;;10.93;100.00;100770.34;5007548;28;20461;-45
2023/01/02 09:11:44;;;;;;;40.20;37.00;;;;;;;10.93;100.00;100772.22;5010514;28;20851;-51
2023/01/02 09:14:11;;;;;;;38.50;35.30;;;;;;;10.91;100.00;100776.91;5004204;28;20426;-48
2023/01/02 09:16:39;;;;;;;38.00;35.20;;;;;;;10.92;100.00;100782.06;5016277;28;20465;-48
2023/01/02 09:19:07;;;;;;;37.30;34.50;;;;;;;10.90;100.00;100773.41;5021306;28;20461;-46
2023/01/02 09:21:35;;;;;;;37.40;34.43;;;;;;;10.87;100.00;100775.69;5015112;28;20477;-48
2023/01/02 09:24:03;;;;;;;37.97;35.33;;;;;;;10.85;100.00;100781.19;5014177;28;20442;-47
2023/01/02 09:26:32;;;;;;;36.70;34.20;;;;;;;10.83;100.00;100783.25;5002812;28;20924;-48
2023/01/02 09:28:59;;;;;;;37.77;35.10;;;;;;;10.79;100.00;100784.66;5001849;28;20474;-48
2023/01/02 09:31:27;;;;;;;38.40;35.80;;;;;;;10.79;100.00;100789.16;5003169;28;20423;-45
2023/01/02 09:33:55;;;;;;;37.10;34.37;;;;;;;10.78;100.00;100774.19;5011818;28;20448;-47
2023/01/02 09:36:23;;;;;;;37.03;34.40;;;;;;;10.75;100.00;100788.72;5003855;28;20437;-47
2023/01/02 09:38:52;;;;;;;37.20;34.50;;;;;;;10.76;100.00;100773.53;5018350;28;20468;-49
2023/01/02 09:41:30;;;;;;;37.20;34.80;;;;;;;10.76;100.00;100769.03;5016795;28;20908;-46
2023/01/02 09:44:02;;;;;;;36.40;33.70;;;;;;;10.71;100.00;100774.16;5013859;28;20437;-48
2023/01/02 09:46:38;;;;;;;36.97;34.00;;;;;;;10.75;100.00;100778.06;5015242;28;20434;-48
2023/01/02 09:49:07;;;;;;;33.90;31.57;;;;;;;10.81;100.00;100789.81;5011813;28;20477;-47
2023/01/02 09:51:35;;;;;;;35.30;32.80;;;;;;;10.83;100.00;100785.91;5010640;28;20973;-50
2023/01/02 09:54:04;;;;;;;34.67;32.57;;;;;;;10.79;100.00;100791.81;5008461;28;20428;-45
2023/01/02 09:56:37;;;;;;;34.37;32.17;;;;;;;10.82;100.00;100794.09;5006370;28;20460;-48
2023/01/02 09:59:14;;;;;;;35.93;33.57;;;;;;;10.80;100.00;100788.97;5021000;28;20516;-45
2023/01/02 10:01:55;;;;;;;33.60;31.30;;;;;;;10.82;100.00;100776.25;5014195;28;21057;-46
2023/01/02 10:04:37;;;;;;;34.60;32.17;;;;;;;10.84;100.00;100789.41;5019728;28;20430;-44
2023/01/02 10:07:11;;;;;;;33.93;31.53;;;;;;;10.84;100.00;100786.75;5010867;28;20440;-48
2023/01/02 10:09:49;;;;;;;33.97;31.77;;;;;;;10.84;100.00;100800.09;5021581;28;20461;-46
2023/01/02 10:12:26;;;;;;;34.00;31.63;;;;;;;10.83;100.00;100809.09;5007917;28;20433;-45
2023/01/02 10:14:59;;;;;;;33.57;31.50;;;;;;;10.79;100.00;100815.84;5009287;28;20484;-44
2023/01/02 10:17:30;;;;;;;35.10;32.70;;;;;;;10.79;100.00;100826.50;5015844;28;20421;-46
2023/01/02 10:20:02;;;;;;;35.00;32.47;;;;;;;10.71;100.00;100816.00;5008776;28;20466;-45
2023/01/02 10:22:36;;;;;;;33.10;31.10;;;;;;;10.59;100.00;100818.38;5005949;28;20561;-46
2023/01/02 10:25:08;;;;;;;34.50;32.10;;;;;;;10.55;100.00;100817.13;5015123;28;20520;-49
2023/01/02 10:27:39;;;;;;;34.10;31.80;;;;;;;10.55;100.00;100820.59;5006659;28;20430;-48
2023/01/02 10:30:17;;;;;;;32.40;30.30;;;;;;;10.54;100.00;100831.47;5014609;28;20476;-43
2023/01/02 10:32:53;;;;;;;32.83;30.93;;;;;;;10.51;100.00;100830.00;5017922;28;20439;-47
2023/01/02 10:35:35;;;;;;;31.83;29.97;;;;;;;10.45;100.00;100824.66;4999779;28;20957;-47
2023/01/02 10:38:03;;;;;;;28.90;27.20;;;;;;;10.37;100.00;100825.59;5009658;28;20456;-48
2023/01/02 10:40:32;;;;;;;29.30;27.70;;;;;;;10.33;100.00;100829.69;5019179;28;20457;-45
2023/01/02 10:43:01;;;;;;;29.47;27.87;;;;;;;10.27;100.00;100846.44;5007164;28;20436;-48
2023/01/02 10:45:31;;;;;;;30.53;28.63;;;;;;;10.22;100.00;100848.00;5017512;28;20460;-51
2023/01/02 10:47:59;;;;;;;29.17;27.53;;;;;;;10.17;100.00;100847.78;5009251;28;20501;-51
2023/01/02 10:50:29;;;;;;;30.63;28.87;;;;;;;10.16;100.00;100846.09;5005188;28;20557;-46
2023/01/02 10:53:08;;;;;;;31.07;29.17;;;;;;;10.13;100.00;100854.44;5016302;28;20433;-47
2023/01/02 10:55:39;;;;;;;32.77;30.27;;;;;;;10.08;100.00;100855.03;5012739;28;20434;-44
2023/01/02 10:58:16;;;;;;;31.90;29.87;;;;;;;10.01;100.00;100856.81;5007944;28;20820;-45
2023/01/02 11:00:45;;;;;;;31.43;29.40;;;;;;;9.91;100.00;100869.63;4986816;28;20541;-44
2023/01/02 11:03:16;;;;;;;32.10;30.10;;;;;;;9.87;100.00;100887.81;4986999;28;20467;-45
2023/01/02 11:05:47;;;;;;;31.13;29.10;;;;;;;9.84;100.00;100892.69;4987067;28;20478;-43
2023/01/02 11:08:16;;;;;;;33.23;30.93;;;;;;;9.79;100.00;100906.59;4986495;28;20971;-43
2023/01/02 11:10:44;;;;;;;34.37;32.07;;;;;;;9.74;100.00;100908.97;4987480;28;20907;-44
2023/01/02 11:13:14;;;;;;;34.40;31.97;;;;;;;9.73;100.00;100923.31;4987342;28;20433;-44
2023/01/02 11:15:52;;;;;;;33.80;31.50;;;;;;;9.66;100.00;100916.25;4986828;28;20431;-49
2023/01/02 11:18:24;;;;;;;33.13;30.90;;;;;;;9.63;100.00;100924.59;4987332;28;20486;-46
2023/01/02 11:20:54;;;;;;;34.30;31.70;;;;;;;9.54;100.00;100945.19;4987221;28;20430;-50
2023/01/02 11:23:25;;;;;;;34.83;32.13;;;;;;;9.43;100.00;100948.31;4986936;28;20469;-45